Celtic Voyager — EIQN — position and weather

sailwx.info

Track history (hours):
 
Tides and Currents Weather Stations Pressure Air Temp Water Temp Dewpoint Dewpoint Depression Visibility Wind Speed Wind Dir Waves Ship Positions

Oceanographic research ship Celtic Voyager (Ireland)

Detailed information on ship capabilities available from University of Delaware's Ocean Information Center.

Last reported at 2020-Aug-04 19:57 UTC. Time now 2020-Aug-07 09:47 UTC.
Position N 51°54' W 008°28'.

Length 31 m; beam 8 m.

Type: Ship. MMSI: 250089000.

Date/timePositionNaut miles runAvg speedWind from/ knotsBaromVisibWave heightAir tempDewpointWater temp
2020-Aug-04 19:57N 51°54' W 008°28'0 0.0
2020-Aug-04 04:50N 51°54' W 008°28'0 0.0
2020-Aug-04 02:53N 51°54' W 008°28'  
2020-Aug-01 14:00N 51°53' W 008°21'22 8.8
2020-Aug-01 11:30N 51°34' W 008°05'253 8.7
2020-Jul-31 06:30N 47°49' W 005°05'3 5.6
2020-Jul-31 05:59N 47°47' W 005°02'4 4.1
2020-Jul-31 05:00N 47°46' W 004°56'13 3.2
2020-Jul-31 00:58N 47°38' W 004°42'3 6.3
2020-Jul-31 00:29N 47°36' W 004°45'14 1.3
2020-Jul-30 13:30N 47°46' W 004°30'14 4.6
2020-Jul-30 10:30N 47°41' W 004°11'5 3.3
2020-Jul-30 09:01N 47°38' W 004°16'4 7.9
2020-Jul-30 08:30N 47°34' W 004°18'13 5.0
2020-Jul-30 05:58N 47°24' W 004°30'6 2.6
2020-Jul-30 03:39N 47°18' W 004°27'16 2.2
2020-Jul-29 20:13N 47°07' W 004°10'4 5.6
2020-Jul-29 19:29N 47°07' W 004°04'8 3.1
2020-Jul-29 17:00N 47°01' W 003°58'3 5.3
2020-Jul-29 16:30N 47°01' W 003°54'7 3.7
2020-Jul-29 14:30N 47°07' W 003°47'11 2.3
2020-Jul-29 09:26N 47°18' W 003°42'21 4.7
2020-Jul-29 05:00N 47°37' W 003°51'15 3.6
2020-Jul-29 00:55N 47°24' W 003°59'7 3.5
2020-Jul-28 23:00N 47°18' W 004°04'24 3.8
2020-Jul-28 16:31N 47°41' W 004°16'24 4.7
2020-Jul-28 11:30N 47°35' W 003°42'1 1.6
2020-Jul-28 11:00N 47°35' W 003°40'3 5.7
2020-Jul-28 10:30N 47°38' W 003°38'7 7.2
2020-Jul-28 09:30N 47°41' W 003°28'6 2.0
2020-Jul-28 06:30N 47°44' W 003°21'0 0.0
2020-Jul-28 05:30N 47°44' W 003°21'0 0.0
2020-Jul-28 01:30N 47°44' W 003°21'0 0.0
2020-Jul-27 23:00N 47°44' W 003°21'0 0.0
2020-Jul-27 19:00N 47°44' W 003°21'0 0.0
2020-Jul-27 17:30N 47°44' W 003°21'0 0.0
2020-Jul-27 17:00N 47°44' W 003°21'0 0.0
2020-Jul-27 16:30N 47°44' W 003°21'0 0.0
2020-Jul-27 16:00N 47°44' W 003°21'0 0.0
2020-Jul-27 15:30N 47°44' W 003°21'0 0.0
2020-Jul-27 15:00N 47°44' W 003°21'0 0.0
2020-Jul-27 14:30N 47°44' W 003°21'0 0.0
2020-Jul-27 12:00N 47°44' W 003°21'5 2.6
2020-Jul-27 10:01N 47°40' W 003°26'3 5.2
2020-Jul-27 09:30N 47°40' W 003°30'5 3.6
2020-Jul-27 08:00N 47°37' W 003°37'5 3.5
2020-Jul-27 06:30N 47°32' W 003°34'7 6.6
2020-Jul-27 05:30N 47°26' W 003°31'3 3.4
2020-Jul-27 04:30N 47°24' W 003°34'5 4.8
2020-Jul-27 03:27N 47°26' W 003°41'3 7.5
2020-Jul-27 03:00N 47°29' W 003°41'1 2.4
2020-Jul-27 02:30N 47°30' W 003°42'5 9.3
2020-Jul-27 02:00N 47°29' W 003°48'12 2.2
2020-Jul-26 20:29N 47°18' W 003°41'6 2.5
2020-Jul-26 17:56N 47°12' W 003°38'6 3.1
2020-Jul-26 15:58N 47°07' W 003°42'  
Track history (hours):
 
Tides and Currents Weather Stations Pressure Air Temp Water Temp Dewpoint Dewpoint Depression Visibility Wind Speed Wind Dir Waves Ship Positions

Oceanographic research ship Celtic Voyager (Ireland)

Detailed information on ship capabilities available from University of Delaware's Ocean Information Center.

Last reported at 2020-Aug-04 19:57 UTC. Time now 2020-Aug-07 09:47 UTC.
Position N 51°54' W 008°28'.

Length 31 m; beam 8 m.

Type: Ship. MMSI: 250089000.

Date/timePositionNaut miles runAvg speedWind from/ knotsBaromVisibWave heightAir tempDewpointWater temp
2020-Aug-04 19:57N 51°54' W 008°28'0 0.0
2020-Aug-04 04:50N 51°54' W 008°28'0 0.0
2020-Aug-04 02:53N 51°54' W 008°28'  
2020-Aug-01 14:00N 51°53' W 008°21'22 8.8
2020-Aug-01 11:30N 51°34' W 008°05'253 8.7
2020-Jul-31 06:30N 47°49' W 005°05'3 5.6
2020-Jul-31 05:59N 47°47' W 005°02'4 4.1
2020-Jul-31 05:00N 47°46' W 004°56'13 3.2
2020-Jul-31 00:58N 47°38' W 004°42'3 6.3
2020-Jul-31 00:29N 47°36' W 004°45'14 1.3
2020-Jul-30 13:30N 47°46' W 004°30'14 4.6
2020-Jul-30 10:30N 47°41' W 004°11'5 3.3
2020-Jul-30 09:01N 47°38' W 004°16'4 7.9
2020-Jul-30 08:30N 47°34' W 004°18'13 5.0
2020-Jul-30 05:58N 47°24' W 004°30'6 2.6
2020-Jul-30 03:39N 47°18' W 004°27'16 2.2
2020-Jul-29 20:13N 47°07' W 004°10'4 5.6
2020-Jul-29 19:29N 47°07' W 004°04'8 3.1
2020-Jul-29 17:00N 47°01' W 003°58'3 5.3
2020-Jul-29 16:30N 47°01' W 003°54'7 3.7
2020-Jul-29 14:30N 47°07' W 003°47'11 2.3
2020-Jul-29 09:26N 47°18' W 003°42'21 4.7
2020-Jul-29 05:00N 47°37' W 003°51'15 3.6
2020-Jul-29 00:55N 47°24' W 003°59'7 3.5
2020-Jul-28 23:00N 47°18' W 004°04'24 3.8
2020-Jul-28 16:31N 47°41' W 004°16'24 4.7
2020-Jul-28 11:30N 47°35' W 003°42'1 1.6
2020-Jul-28 11:00N 47°35' W 003°40'3 5.7
2020-Jul-28 10:30N 47°38' W 003°38'7 7.2
2020-Jul-28 09:30N 47°41' W 003°28'6 2.0
2020-Jul-28 06:30N 47°44' W 003°21'0 0.0
2020-Jul-28 05:30N 47°44' W 003°21'0 0.0
2020-Jul-28 01:30N 47°44' W 003°21'0 0.0
2020-Jul-27 23:00N 47°44' W 003°21'0 0.0
2020-Jul-27 19:00N 47°44' W 003°21'0 0.0
2020-Jul-27 17:30N 47°44' W 003°21'0 0.0
2020-Jul-27 17:00N 47°44' W 003°21'0 0.0
2020-Jul-27 16:30N 47°44' W 003°21'0 0.0
2020-Jul-27 16:00N 47°44' W 003°21'0 0.0
2020-Jul-27 15:30N 47°44' W 003°21'0 0.0
2020-Jul-27 15:00N 47°44' W 003°21'0 0.0
2020-Jul-27 14:30N 47°44' W 003°21'0 0.0
2020-Jul-27 12:00N 47°44' W 003°21'5 2.6
2020-Jul-27 10:01N 47°40' W 003°26'3 5.2
2020-Jul-27 09:30N 47°40' W 003°30'5 3.6
2020-Jul-27 08:00N 47°37' W 003°37'5 3.5
2020-Jul-27 06:30N 47°32' W 003°34'7 6.6
2020-Jul-27 05:30N 47°26' W 003°31'3 3.4
2020-Jul-27 04:30N 47°24' W 003°34'5 4.8
2020-Jul-27 03:27N 47°26' W 003°41'3 7.5
2020-Jul-27 03:00N 47°29' W 003°41'1 2.4
2020-Jul-27 02:30N 47°30' W 003°42'5 9.3
2020-Jul-27 02:00N 47°29' W 003°48'12 2.2
2020-Jul-26 20:29N 47°18' W 003°41'6 2.5
2020-Jul-26 17:56N 47°12' W 003°38'6 3.1
2020-Jul-26 15:58N 47°07' W 003°42'  

Dump ship's entire track history